createdAt,value
2023-05-12T00:00:17.396Z,9.85
2023-05-12T00:01:17.314Z,9.89
2023-05-12T00:02:17.320Z,9.90
2023-05-12T00:03:17.442Z,9.82
2023-05-12T00:04:17.377Z,9.86
2023-05-12T00:05:17.445Z,9.98
2023-05-12T00:06:17.447Z,10.10
2023-05-12T00:07:17.453Z,10.04
2023-05-12T00:08:17.459Z,9.98
2023-05-12T00:09:17.496Z,9.90
2023-05-12T00:10:17.591Z,9.74
2023-05-12T00:11:17.513Z,9.80
2023-05-12T00:12:17.524Z,9.95
2023-05-12T00:13:17.563Z,9.91
2023-05-12T00:14:17.523Z,9.93
2023-05-12T00:15:17.564Z,9.91
2023-05-12T00:16:17.616Z,9.87
2023-05-12T00:17:17.594Z,9.96
2023-05-12T00:18:17.588Z,10.06
2023-05-12T00:19:17.606Z,10.15
2023-05-12T00:20:17.965Z,10.20
2023-05-12T00:21:17.710Z,10.17
2023-05-12T00:22:17.740Z,10.11
2023-05-12T00:23:17.713Z,10.18
2023-05-12T00:24:17.813Z,10.26
2023-05-12T00:25:17.856Z,10.32
2023-05-12T00:26:17.889Z,10.39
2023-05-12T00:27:18.082Z,10.33
2023-05-12T00:28:17.921Z,10.39
2023-05-12T00:29:17.961Z,10.43
2023-05-12T00:30:18.302Z,10.41
2023-05-12T00:31:17.992Z,10.41
2023-05-12T00:32:18.042Z,10.41
2023-05-12T00:33:18.124Z,10.41
2023-05-12T00:34:18.095Z,10.44
2023-05-12T00:35:18.096Z,10.46
2023-05-12T00:36:18.105Z,10.39
2023-05-12T00:37:18.159Z,10.38
2023-05-12T00:38:18.181Z,10.40
2023-05-12T00:39:18.249Z,10.39
2023-05-12T00:40:18.540Z,10.41
2023-05-12T00:41:18.315Z,10.41
2023-05-12T00:42:18.340Z,10.29
2023-05-12T00:43:18.383Z,10.32
2023-05-12T00:44:18.400Z,10.37
2023-05-12T00:45:18.446Z,10.35
2023-05-12T00:46:18.585Z,10.30
2023-05-12T00:47:18.558Z,10.24
2023-05-12T00:48:18.554Z,10.29
2023-05-12T00:49:18.605Z,10.24
2023-05-12T00:50:19.000Z,10.16
2023-05-12T00:51:18.648Z,10.19
2023-05-12T00:52:18.662Z,10.26
2023-05-12T00:53:18.658Z,10.31
2023-05-12T00:54:18.714Z,10.34
2023-05-12T00:55:18.756Z,10.39
2023-05-12T00:56:18.750Z,10.37
2023-05-12T00:57:18.775Z,10.30
2023-05-12T00:58:18.791Z,10.34
2023-05-12T00:59:18.803Z,10.35
2023-05-12T01:00:19.065Z,10.31
2023-05-12T01:01:19.079Z,10.35
2023-05-12T01:02:19.028Z,10.39
2023-05-12T01:03:19.091Z,10.44
2023-05-12T01:04:19.010Z,10.46
2023-05-12T01:05:19.014Z,10.48
2023-05-12T01:06:19.012Z,10.45
2023-05-12T01:07:19.086Z,10.48
2023-05-12T01:08:19.098Z,10.50
2023-05-12T01:09:19.164Z,10.40
2023-05-12T01:10:19.369Z,10.25
2023-05-12T01:11:19.206Z,10.22
2023-05-12T01:12:19.252Z,10.27
2023-05-12T01:13:19.290Z,10.18
2023-05-12T01:14:19.337Z,10.16
2023-05-12T01:15:19.332Z,10.22
2023-05-12T01:16:19.361Z,10.20
2023-05-12T01:17:19.410Z,10.27
2023-05-12T01:18:19.522Z,10.33
2023-05-12T01:19:19.479Z,10.39
2023-05-12T01:20:19.665Z,10.42
2023-05-12T01:21:19.456Z,10.47
2023-05-12T01:22:19.535Z,10.52
2023-05-12T01:23:19.536Z,10.52
2023-05-12T01:24:19.595Z,10.45
2023-05-12T01:25:19.586Z,10.31
2023-05-12T01:26:19.615Z,10.35
2023-05-12T01:27:19.614Z,10.39
2023-05-12T01:28:19.663Z,10.42
2023-05-12T01:29:19.747Z,10.45
2023-05-12T01:30:20.112Z,10.47
2023-05-12T01:31:21.274Z,10.46
2023-05-12T01:32:19.795Z,10.50
2023-05-12T01:33:19.849Z,10.54
2023-05-12T01:34:19.905Z,10.56
2023-05-12T01:35:19.975Z,10.58
2023-05-12T01:36:19.987Z,10.54
2023-05-12T01:37:20.027Z,10.51
2023-05-12T01:38:20.043Z,10.49
2023-05-12T01:39:20.067Z,10.49
2023-05-12T01:40:20.295Z,10.50
2023-05-12T01:41:20.070Z,10.41
2023-05-12T01:42:20.128Z,10.45
2023-05-12T01:43:22.202Z,10.50
2023-05-12T01:44:20.236Z,10.48
2023-05-12T01:45:20.237Z,10.52
2023-05-12T01:46:20.291Z,10.52
2023-05-12T01:47:20.299Z,10.52
2023-05-12T01:48:20.296Z,10.47
2023-05-12T01:49:20.292Z,10.47
2023-05-12T01:50:20.509Z,10.48
2023-05-12T01:51:20.405Z,10.51
2023-05-12T01:52:20.444Z,10.48
2023-05-12T01:53:20.455Z,10.46
2023-05-12T01:54:20.521Z,10.47
2023-05-12T01:55:20.567Z,10.43
2023-05-12T01:56:20.621Z,10.41
2023-05-12T01:57:20.626Z,10.41
2023-05-12T01:58:20.619Z,10.31
2023-05-12T01:59:20.671Z,10.28
2023-05-12T02:00:20.909Z,10.10
2023-05-12T02:01:20.758Z,9.95
2023-05-12T02:02:20.786Z,9.95
2023-05-12T02:03:20.857Z,9.97
2023-05-12T02:04:20.838Z,9.86
2023-05-12T02:05:20.859Z,9.93
2023-05-12T02:06:20.919Z,9.75
2023-05-12T02:07:20.925Z,9.64
2023-05-12T02:08:20.972Z,9.73
2023-05-12T02:09:20.969Z,9.75
2023-05-12T02:10:21.196Z,9.78
2023-05-12T02:11:21.027Z,9.83
2023-05-12T02:12:20.998Z,9.94
2023-05-12T02:13:21.031Z,9.93
2023-05-12T02:14:21.017Z,9.95
2023-05-12T02:15:21.058Z,9.90
2023-05-12T02:16:21.115Z,9.93
2023-05-12T02:17:21.082Z,10.04
2023-05-12T02:18:21.113Z,10.13
2023-05-12T02:19:21.131Z,10.20
2023-05-12T02:20:21.359Z,10.28
2023-05-12T02:21:21.197Z,10.31
2023-05-12T02:22:21.241Z,10.35
2023-05-12T02:23:21.302Z,10.39
2023-05-12T02:24:21.383Z,10.44
2023-05-12T02:25:21.396Z,10.41
2023-05-12T02:26:21.370Z,10.41
2023-05-12T02:27:21.441Z,10.44
2023-05-12T02:28:21.528Z,10.48
2023-05-12T02:29:21.559Z,10.51
2023-05-12T02:30:21.772Z,10.51
2023-05-12T02:31:21.613Z,10.54
2023-05-12T02:32:21.705Z,10.57
2023-05-12T02:33:21.656Z,10.59
2023-05-12T02:34:21.697Z,10.60
2023-05-12T02:35:21.781Z,10.61
2023-05-12T02:36:21.782Z,10.56
2023-05-12T02:37:21.784Z,10.55
2023-05-12T02:38:21.797Z,10.56
2023-05-12T02:39:21.799Z,10.57
2023-05-12T02:40:21.976Z,10.56
2023-05-12T02:41:21.841Z,10.57
2023-05-12T02:42:21.928Z,10.58
2023-05-12T02:43:21.949Z,10.58
2023-05-12T02:44:21.930Z,10.60
2023-05-12T02:45:21.980Z,10.57
2023-05-12T02:46:22.059Z,10.56
2023-05-12T02:47:22.085Z,10.48
2023-05-12T02:48:22.064Z,10.46
2023-05-12T02:49:22.039Z,10.43
2023-05-12T02:50:22.278Z,10.35
2023-05-12T02:51:22.088Z,10.28
2023-05-12T02:52:22.057Z,10.31
2023-05-12T02:53:22.105Z,10.36
2023-05-12T02:54:22.152Z,10.37
2023-05-12T02:55:22.146Z,10.30
2023-05-12T02:56:22.174Z,10.18
2023-05-12T02:57:22.224Z,10.07
2023-05-12T02:58:22.309Z,9.98
2023-05-12T02:59:22.333Z,10.00
2023-05-12T03:00:22.404Z,10.09
2023-05-12T03:01:22.435Z,10.18
2023-05-12T03:02:22.493Z,10.26
2023-05-12T03:03:22.513Z,10.29
2023-05-12T03:04:22.515Z,10.28
2023-05-12T03:05:22.519Z,10.11
2023-05-12T03:06:22.526Z,9.99
2023-05-12T03:07:22.561Z,10.04
2023-05-12T03:08:22.547Z,10.02
2023-05-12T03:09:22.532Z,10.04
2023-05-12T03:10:22.700Z,9.99
2023-05-12T03:11:22.570Z,9.88
2023-05-12T03:12:22.574Z,9.86
2023-05-12T03:13:22.660Z,9.95
2023-05-12T03:14:22.626Z,10.04
2023-05-12T03:15:22.654Z,10.10
2023-05-12T03:16:22.738Z,10.01
2023-05-12T03:17:22.764Z,9.91
2023-05-12T03:18:22.820Z,9.94
2023-05-12T03:19:22.700Z,9.91
2023-05-12T03:20:22.899Z,9.82
2023-05-12T03:21:22.718Z,9.83
2023-05-12T03:22:22.815Z,9.95
2023-05-12T03:23:22.746Z,10.05
2023-05-12T03:24:22.760Z,10.03
2023-05-12T03:25:22.766Z,9.96
2023-05-12T03:26:22.804Z,10.02
2023-05-12T03:27:22.835Z,10.10
2023-05-12T03:28:22.901Z,10.17
2023-05-12T03:29:22.934Z,10.24
2023-05-12T03:30:22.943Z,10.22
2023-05-12T03:31:23.004Z,10.23
2023-05-12T03:32:23.081Z,10.27
2023-05-12T03:33:23.067Z,10.27
2023-05-12T03:34:23.118Z,10.25
2023-05-12T03:35:23.143Z,10.31
2023-05-12T03:36:23.173Z,10.34
2023-05-12T03:37:23.190Z,10.30
2023-05-12T03:38:23.213Z,10.31
2023-05-12T03:39:23.279Z,10.34
2023-05-12T03:40:23.464Z,10.36
2023-05-12T03:41:23.317Z,10.36
2023-05-12T03:42:23.393Z,10.36
2023-05-12T03:43:23.394Z,10.31
2023-05-12T03:44:23.431Z,10.23
2023-05-12T03:45:23.457Z,10.21
2023-05-12T03:46:23.513Z,10.20
2023-05-12T03:47:23.731Z,10.06
2023-05-12T03:48:23.635Z,10.06
2023-05-12T03:49:24.421Z,9.94
2023-05-12T03:50:23.574Z,9.81
2023-05-12T03:51:23.582Z,9.82
2023-05-12T03:52:23.590Z,9.92
2023-05-12T03:53:23.600Z,9.85
2023-05-12T03:54:23.674Z,9.91
2023-05-12T03:55:23.648Z,9.95
2023-05-12T03:56:23.676Z,9.85
2023-05-12T03:57:23.742Z,9.75
2023-05-12T03:58:23.723Z,9.81
2023-05-12T03:59:23.747Z,9.88
2023-05-12T04:00:23.771Z,9.92
2023-05-12T04:01:23.812Z,9.96
2023-05-12T04:02:23.938Z,9.94
2023-05-12T04:03:23.934Z,9.83
2023-05-12T04:04:23.871Z,9.88
2023-05-12T04:05:23.901Z,9.92
2023-05-12T04:06:23.947Z,9.94
2023-05-12T04:07:23.987Z,9.77
2023-05-12T04:08:24.067Z,9.72
2023-05-12T04:09:24.100Z,9.80
2023-05-12T04:10:24.116Z,9.80
2023-05-12T04:11:24.145Z,9.83
2023-05-12T04:12:24.226Z,9.89
2023-05-12T04:13:24.273Z,9.95
2023-05-12T04:14:31.856Z,9.85
2023-05-12T04:15:25.260Z,9.77
2023-05-12T04:16:24.323Z,9.79
2023-05-12T04:17:24.308Z,9.88
2023-05-12T04:18:24.299Z,9.75
2023-05-12T04:19:24.225Z,9.74
2023-05-12T04:20:24.286Z,9.79
2023-05-12T04:21:24.225Z,9.87
2023-05-12T04:22:25.743Z,9.94
2023-05-12T04:23:24.222Z,10.00
2023-05-12T04:24:24.217Z,10.09
2023-05-12T04:25:24.194Z,10.11
2023-05-12T04:26:24.209Z,10.12
2023-05-12T04:27:24.294Z,10.02
2023-05-12T04:28:24.312Z,10.02
2023-05-12T04:29:24.348Z,10.01
2023-05-12T04:30:24.383Z,10.06
2023-05-12T04:31:24.441Z,10.10
2023-05-12T04:32:24.443Z,10.15
2023-05-12T04:33:24.430Z,10.19
2023-05-12T04:34:24.433Z,10.23
2023-05-12T04:35:24.438Z,10.28
2023-05-12T04:36:24.494Z,10.33
2023-05-12T04:37:24.533Z,10.39
2023-05-12T04:38:24.537Z,10.40
2023-05-12T04:39:24.607Z,10.40
2023-05-12T04:40:24.609Z,10.40
2023-05-12T04:41:24.714Z,10.35
2023-05-12T04:42:24.711Z,10.36
2023-05-12T04:44:24.731Z,10.34
2023-05-12T04:45:24.747Z,10.27
2023-05-12T04:46:24.766Z,10.31
2023-05-12T04:47:24.711Z,10.30
2023-05-12T04:48:24.706Z,10.29
2023-05-12T04:49:24.693Z,10.32
2023-05-12T04:50:24.681Z,10.34
2023-05-12T04:51:24.689Z,10.37
2023-05-12T04:52:24.955Z,10.32
2023-05-12T04:53:24.642Z,10.36
2023-05-12T04:54:24.659Z,10.28
2023-05-12T04:55:24.644Z,10.28
2023-05-12T04:56:24.623Z,10.35
2023-05-12T04:57:24.668Z,10.37
2023-05-12T04:58:24.636Z,10.29
2023-05-12T04:59:24.636Z,10.20
2023-05-12T05:00:24.635Z,10.11
2023-05-12T05:01:24.639Z,10.12
2023-05-12T05:02:24.721Z,10.15
2023-05-12T05:03:24.686Z,10.14
2023-05-12T05:04:24.594Z,10.06
2023-05-12T05:05:24.562Z,10.04
2023-05-12T05:06:24.563Z,10.06
2023-05-12T05:07:24.566Z,10.00
2023-05-12T05:08:24.595Z,9.94
2023-05-12T05:09:24.527Z,9.89
2023-05-12T05:10:24.547Z,9.89
2023-05-12T05:11:24.526Z,9.83
2023-05-12T05:12:24.547Z,9.89
2023-05-12T05:13:24.547Z,9.95
2023-05-12T05:14:24.514Z,9.90
2023-05-12T05:15:24.520Z,9.98
2023-05-12T05:16:24.698Z,10.06
2023-05-12T05:17:24.514Z,10.15
2023-05-12T05:18:24.730Z,10.13
2023-05-12T05:19:36.238Z,10.15
2023-05-12T05:20:28.928Z,10.19
2023-05-12T05:21:24.468Z,10.30
2023-05-12T05:22:24.465Z,10.37
2023-05-12T05:23:24.486Z,10.44
2023-05-12T05:24:24.476Z,10.52
2023-05-12T05:25:24.426Z,10.46
2023-05-12T05:26:24.428Z,10.39
2023-05-12T05:27:24.452Z,10.38
2023-05-12T05:28:24.437Z,10.38
2023-05-12T05:29:24.465Z,10.32
2023-05-12T05:30:24.411Z,10.41
2023-05-12T05:31:24.456Z,10.42
2023-05-12T05:32:24.574Z,10.43
2023-05-12T05:33:24.397Z,10.31
2023-05-12T05:34:24.398Z,10.19
2023-05-12T05:35:24.374Z,10.09
2023-05-12T05:36:24.385Z,10.07
2023-05-12T05:37:24.389Z,10.13
2023-05-12T05:38:24.404Z,10.24
2023-05-12T05:39:24.396Z,10.35
2023-05-12T05:40:24.370Z,10.32
2023-05-12T05:41:24.371Z,10.47
2023-05-12T05:42:24.383Z,10.61
2023-05-12T05:43:24.324Z,10.71
2023-05-12T05:44:24.328Z,10.69
2023-05-12T05:45:25.132Z,10.79
2023-05-12T05:46:24.393Z,10.83
2023-05-12T05:47:24.366Z,10.84
2023-05-12T05:48:24.482Z,10.97
2023-05-12T05:49:24.369Z,11.10
2023-05-12T05:50:24.339Z,11.22
2023-05-12T05:51:24.375Z,11.21
2023-05-12T05:52:24.367Z,11.19
2023-05-12T05:53:24.378Z,11.28
2023-05-12T05:54:24.452Z,11.30
2023-05-12T05:55:24.559Z,11.40
2023-05-12T05:56:24.981Z,11.48
2023-05-12T05:57:24.979Z,11.54
2023-05-12T05:58:25.007Z,11.52
2023-05-12T05:59:24.823Z,11.59
2023-05-12T06:00:24.962Z,11.67
2023-05-12T06:01:24.893Z,11.73
2023-05-12T06:02:25.086Z,11.75
2023-05-12T06:03:25.063Z,11.85
2023-05-12T06:04:25.160Z,11.93
2023-05-12T06:05:25.154Z,12.02
2023-05-12T06:06:25.169Z,12.07
2023-05-12T06:07:25.144Z,12.18
2023-05-12T06:08:25.250Z,12.29
2023-05-12T06:09:25.259Z,12.34
2023-05-12T06:10:25.261Z,12.40
2023-05-12T06:11:25.261Z,12.50
2023-05-12T06:12:25.316Z,12.55
2023-05-12T06:13:25.333Z,12.50
2023-05-12T06:14:25.395Z,12.35
2023-05-12T06:15:25.416Z,12.44
2023-05-12T06:16:25.449Z,12.35
2023-05-12T06:17:25.512Z,12.34
2023-05-12T06:18:25.547Z,12.23
2023-05-12T06:19:25.527Z,12.22
2023-05-12T06:20:25.534Z,12.22
2023-05-12T06:21:25.590Z,12.18
2023-05-12T06:22:25.599Z,12.18
2023-05-12T06:23:25.598Z,12.03
2023-05-12T06:24:25.638Z,11.85
2023-05-12T06:25:25.675Z,11.76
2023-05-12T06:26:25.709Z,11.68
2023-05-12T06:27:25.704Z,11.62
2023-05-12T06:28:25.712Z,11.70
2023-05-12T06:29:25.790Z,11.77
2023-05-12T06:30:25.769Z,11.77
2023-05-12T06:31:25.839Z,11.79
2023-05-12T06:32:25.863Z,11.80
2023-05-12T06:33:25.821Z,11.96
2023-05-12T06:34:25.830Z,12.09
2023-05-12T06:35:25.848Z,12.17
2023-05-12T06:36:25.854Z,12.15
2023-05-12T06:37:25.876Z,12.31
2023-05-12T06:38:25.911Z,12.50
2023-05-12T06:39:25.909Z,12.68
2023-05-12T06:40:25.961Z,12.75
2023-05-12T06:41:25.978Z,12.67
2023-05-12T06:42:26.029Z,12.61
2023-05-12T06:43:26.498Z,12.54
2023-05-12T06:44:26.094Z,12.46
2023-05-12T06:45:26.093Z,12.66
2023-05-12T06:46:26.152Z,12.86
2023-05-12T06:47:26.177Z,13.03
2023-05-12T06:48:26.220Z,13.10
2023-05-12T06:49:26.233Z,13.33
2023-05-12T06:50:26.261Z,13.43
2023-05-12T06:51:26.354Z,13.19
2023-05-12T06:52:26.292Z,13.07
2023-05-12T06:53:26.260Z,13.27
2023-05-12T06:54:26.294Z,13.49
2023-05-12T06:55:26.301Z,13.61
2023-05-12T06:56:26.340Z,13.77
2023-05-12T06:57:26.349Z,13.88
2023-05-12T06:58:26.512Z,13.81
2023-05-12T06:59:26.391Z,13.86
2023-05-12T07:00:26.461Z,13.82
2023-05-12T07:01:26.484Z,13.96
2023-05-12T07:02:26.502Z,14.10
2023-05-12T07:03:26.477Z,14.14
2023-05-12T07:04:26.569Z,14.28
2023-05-12T07:05:26.520Z,14.33
2023-05-12T07:06:26.549Z,14.03
2023-05-12T07:07:26.547Z,14.14
2023-05-12T07:08:26.584Z,14.16
2023-05-12T07:09:26.597Z,14.20
2023-05-12T07:10:26.649Z,14.26
2023-05-12T07:11:26.678Z,14.10
2023-05-12T07:12:26.721Z,13.86
2023-05-12T07:13:26.754Z,13.85
2023-05-12T07:14:26.805Z,13.81
2023-05-12T07:15:26.855Z,13.75
2023-05-12T07:16:26.927Z,13.79
2023-05-12T07:17:26.959Z,13.60
2023-05-12T07:18:26.982Z,13.53
2023-05-12T07:19:26.968Z,13.42
2023-05-12T07:20:27.027Z,13.56
2023-05-12T07:21:27.000Z,13.70
2023-05-12T07:22:27.007Z,13.70
2023-05-12T07:23:27.051Z,13.49
2023-05-12T07:24:27.164Z,13.14
2023-05-12T07:25:27.257Z,12.98
2023-05-12T07:26:27.183Z,12.88
2023-05-12T07:27:27.182Z,12.98
2023-05-12T07:28:27.182Z,13.25
2023-05-12T07:29:27.192Z,13.27
2023-05-12T07:30:27.253Z,13.52
2023-05-12T07:31:27.317Z,13.76
2023-05-12T07:32:27.352Z,13.99
2023-05-12T07:33:27.316Z,13.99
2023-05-12T07:34:27.344Z,13.95
2023-05-12T07:35:27.422Z,14.03
2023-05-12T07:36:27.492Z,14.02
2023-05-12T07:37:27.526Z,13.94
2023-05-12T07:38:27.566Z,14.04
2023-05-12T07:39:27.646Z,13.85
2023-05-12T07:40:27.588Z,13.74
2023-05-12T07:41:27.641Z,14.02
2023-05-12T07:42:27.643Z,14.22
2023-05-12T07:43:27.726Z,14.11
2023-05-12T07:44:27.761Z,14.10
2023-05-12T07:45:27.815Z,14.15
2023-05-12T07:46:27.870Z,14.26
2023-05-12T07:47:27.824Z,14.40
2023-05-12T07:48:27.864Z,14.44
2023-05-12T07:49:27.964Z,14.46
2023-05-12T07:50:27.978Z,14.51
2023-05-12T07:51:28.006Z,14.51
2023-05-12T07:52:28.062Z,14.55
2023-05-12T07:53:28.084Z,14.57
2023-05-12T07:54:28.088Z,14.79
2023-05-12T07:55:28.272Z,14.98
2023-05-12T07:56:28.137Z,15.02
2023-05-12T07:57:28.663Z,15.05
2023-05-12T07:58:28.218Z,14.99
2023-05-12T07:59:28.228Z,15.03
2023-05-12T08:00:28.273Z,15.11
2023-05-12T08:01:28.273Z,15.30
2023-05-12T08:02:28.356Z,15.39
2023-05-12T08:03:28.639Z,15.51
2023-05-12T08:04:28.439Z,15.50
2023-05-12T08:05:28.381Z,15.40
2023-05-12T08:06:28.375Z,15.56
2023-05-12T08:07:28.409Z,15.56
2023-05-12T08:08:28.442Z,15.72
2023-05-12T08:09:28.446Z,15.75
2023-05-12T08:10:28.472Z,15.67
2023-05-12T08:11:28.533Z,15.27
2023-05-12T08:12:28.611Z,15.35
2023-05-12T08:13:28.587Z,15.40
2023-05-12T08:14:28.646Z,15.50
2023-05-12T08:15:28.641Z,15.85
2023-05-12T08:16:28.686Z,15.98
2023-05-12T08:17:29.421Z,16.06
2023-05-12T08:18:28.725Z,15.93
2023-05-12T08:19:28.703Z,16.03
2023-05-12T08:20:28.734Z,16.15
2023-05-12T08:21:28.736Z,16.05
2023-05-12T08:22:28.761Z,16.26
2023-05-12T08:23:28.796Z,16.27
2023-05-12T08:24:28.867Z,16.36
2023-05-12T08:25:29.522Z,16.33
2023-05-12T08:26:29.153Z,16.48
2023-05-12T08:27:29.043Z,16.68
2023-05-12T08:28:29.009Z,16.93
2023-05-12T08:29:29.027Z,17.09
2023-05-12T08:30:29.054Z,17.30
2023-05-12T08:31:29.201Z,17.71
2023-05-12T08:32:29.169Z,17.87
2023-05-12T08:33:29.162Z,17.76
2023-05-12T08:34:29.164Z,17.57
2023-05-12T08:35:29.196Z,17.12
2023-05-12T08:36:29.298Z,17.36
2023-05-12T08:37:30.004Z,17.32
2023-05-12T08:38:29.225Z,17.27
2023-05-12T08:39:29.277Z,17.37
2023-05-12T08:40:29.270Z,17.27
2023-05-12T08:41:29.309Z,16.83
2023-05-12T08:42:29.348Z,16.74
2023-05-12T08:43:29.383Z,16.78
2023-05-12T08:44:29.419Z,16.94
2023-05-12T08:45:29.454Z,17.16
2023-05-12T08:46:29.482Z,17.38
2023-05-12T08:47:29.581Z,17.43
2023-05-12T08:48:29.553Z,17.47
2023-05-12T08:49:29.628Z,17.52
2023-05-12T08:50:29.592Z,17.32
2023-05-12T08:51:30.058Z,17.55
2023-05-12T08:52:29.660Z,17.71
2023-05-12T08:53:29.720Z,17.43
2023-05-12T08:54:29.759Z,17.44
2023-05-12T08:55:33.560Z,17.29
2023-05-12T08:57:30.116Z,17.75
2023-05-12T08:58:40.265Z,18.10
2023-05-12T08:59:30.776Z,18.25
2023-05-12T09:00:30.040Z,18.54
2023-05-12T09:01:29.778Z,18.56
2023-05-12T09:02:41.063Z,18.54
2023-05-12T09:03:30.764Z,18.39
2023-05-12T09:04:29.799Z,17.85
2023-05-12T09:05:29.746Z,17.74
2023-05-12T09:06:29.718Z,18.02
2023-05-12T09:07:29.759Z,18.17
2023-05-12T09:08:29.679Z,18.25
2023-05-12T09:09:29.685Z,18.41
2023-05-12T09:11:29.676Z,18.41
2023-05-12T09:12:29.675Z,18.22
2023-05-12T09:13:29.643Z,17.89
2023-05-12T09:14:29.686Z,17.76
2023-05-12T09:15:29.686Z,17.16
2023-05-12T09:16:29.689Z,17.51
2023-05-12T09:17:29.712Z,17.64
2023-05-12T09:18:29.747Z,18.14
2023-05-12T09:19:29.609Z,18.25
2023-05-12T09:20:31.820Z,18.47
2023-05-12T09:21:29.809Z,18.57
2023-05-12T09:22:29.857Z,18.65
2023-05-12T09:23:29.878Z,18.56
2023-05-12T09:24:29.897Z,18.59
2023-05-12T09:25:29.882Z,18.88
2023-05-12T09:26:30.534Z,19.23
2023-05-12T09:27:30.109Z,19.58
2023-05-12T09:28:30.059Z,19.51
2023-05-12T09:29:32.518Z,19.33
2023-05-12T09:30:30.083Z,19.14
2023-05-12T09:31:30.134Z,19.22
2023-05-12T09:32:30.069Z,18.84
2023-05-12T09:33:30.038Z,18.88
2023-05-12T09:34:30.072Z,18.79
2023-05-12T09:35:30.030Z,18.85
2023-05-12T09:36:30.028Z,18.88
2023-05-12T09:37:30.143Z,18.55
2023-05-12T09:38:30.042Z,18.22
2023-05-12T09:39:30.181Z,18.22
2023-05-12T09:40:30.018Z,18.39
2023-05-12T09:41:30.012Z,18.36
2023-05-12T09:42:30.009Z,17.87
2023-05-12T09:43:30.084Z,17.57
2023-05-12T09:44:30.029Z,17.31
2023-05-12T09:45:29.988Z,17.09
2023-05-12T09:46:30.084Z,16.73
2023-05-12T09:47:30.082Z,16.53
2023-05-12T09:48:30.046Z,16.42
2023-05-12T09:49:29.972Z,16.13
2023-05-12T09:50:37.425Z,16.37
2023-05-12T09:51:30.957Z,16.58
2023-05-12T09:52:29.940Z,16.94
2023-05-12T09:53:30.045Z,16.87
2023-05-12T09:54:29.910Z,16.76
2023-05-12T09:55:29.914Z,16.90
2023-05-12T09:56:29.921Z,16.97
2023-05-12T09:57:29.907Z,16.97
2023-05-12T09:58:29.890Z,16.82
2023-05-12T09:59:29.900Z,16.87
2023-05-12T10:00:41.168Z,17.05
2023-05-12T10:01:30.962Z,17.05
2023-05-12T10:02:30.034Z,17.05
2023-05-12T10:03:29.946Z,16.90
2023-05-12T10:04:29.879Z,17.08
2023-05-12T10:05:29.861Z,17.21
2023-05-12T10:06:29.842Z,17.42
2023-05-12T10:07:29.831Z,17.67
2023-05-12T10:08:29.820Z,17.62
2023-05-12T10:09:29.841Z,17.93
2023-05-12T10:10:30.054Z,18.17
2023-05-12T10:11:29.847Z,17.69
2023-05-12T10:12:29.809Z,17.51
2023-05-12T10:13:29.813Z,17.06
2023-05-12T10:14:29.794Z,17.14
2023-05-12T10:15:29.796Z,16.82
2023-05-12T10:16:29.817Z,16.87
2023-05-12T10:17:29.830Z,16.89
2023-05-12T10:18:29.853Z,16.84
2023-05-12T10:19:30.571Z,17.03
2023-05-12T10:20:29.909Z,17.25
2023-05-12T10:21:29.904Z,17.69
2023-05-12T10:22:29.921Z,17.79
2023-05-12T10:23:29.962Z,17.69
2023-05-12T10:24:30.040Z,17.98
2023-05-12T10:25:29.994Z,18.02
2023-05-12T10:26:30.026Z,18.10
2023-05-12T10:27:30.104Z,18.28
2023-05-12T10:28:30.104Z,18.51
2023-05-12T10:29:30.580Z,18.59
2023-05-12T10:30:30.229Z,18.63
2023-05-12T10:31:30.263Z,18.72
2023-05-12T10:32:30.249Z,18.40
2023-05-12T10:33:30.298Z,18.09
2023-05-12T10:34:30.300Z,18.20
2023-05-12T10:35:30.347Z,18.17
2023-05-12T10:36:30.352Z,18.25
2023-05-12T10:37:30.421Z,18.47
2023-05-12T10:38:30.437Z,18.79
2023-05-12T10:39:30.476Z,19.00
2023-05-12T10:40:30.480Z,18.99
2023-05-12T10:41:30.514Z,18.80
2023-05-12T10:42:30.554Z,18.91
2023-05-12T10:43:30.581Z,18.70
2023-05-12T10:44:30.659Z,18.72
2023-05-12T10:45:31.101Z,18.75
2023-05-12T10:46:30.932Z,18.87
2023-05-12T10:47:30.757Z,19.04
2023-05-12T10:48:30.753Z,19.16
2023-05-12T10:49:30.795Z,19.24
2023-05-12T10:50:30.817Z,18.90
2023-05-12T10:51:30.856Z,18.83
2023-05-12T10:52:30.927Z,19.09
2023-05-12T10:53:45.202Z,19.19
2023-05-12T10:54:31.891Z,19.10
2023-05-12T10:55:30.956Z,19.20
2023-05-12T10:56:31.108Z,19.35
2023-05-12T10:57:31.249Z,19.51
2023-05-12T10:58:31.162Z,19.54
2023-05-12T10:59:31.334Z,19.33
2023-05-12T11:00:31.406Z,19.33
2023-05-12T11:01:31.666Z,19.44
2023-05-12T11:02:32.073Z,19.48
2023-05-12T11:03:31.543Z,19.58
2023-05-12T11:04:30.930Z,19.65
2023-05-12T11:05:31.836Z,19.75
2023-05-12T11:07:31.189Z,18.97
2023-05-12T11:08:30.985Z,19.14
2023-05-12T11:09:31.261Z,19.50
2023-05-12T11:10:31.333Z,19.75
2023-05-12T11:11:31.334Z,20.02
2023-05-12T11:12:30.929Z,20.23
2023-05-12T11:13:30.951Z,20.44
2023-05-12T11:14:30.985Z,20.22
2023-05-12T11:15:31.018Z,20.11
2023-05-12T11:16:31.121Z,20.26
2023-05-12T11:17:31.625Z,20.51
2023-05-12T11:18:31.142Z,20.35
2023-05-12T11:19:31.193Z,20.25
2023-05-12T11:20:31.602Z,20.49
2023-05-12T11:21:31.227Z,20.63
2023-05-12T11:22:31.266Z,20.84
2023-05-12T11:23:31.413Z,21.01
2023-05-12T11:24:31.332Z,21.32
2023-05-12T11:25:31.621Z,21.61
2023-05-12T11:26:31.380Z,21.93
2023-05-12T11:27:31.418Z,22.12
2023-05-12T11:28:31.455Z,22.14
2023-05-12T11:29:31.481Z,22.21
2023-05-12T11:30:31.501Z,22.42
2023-05-12T11:31:31.540Z,22.75
2023-05-12T11:32:31.667Z,22.95
2023-05-12T11:33:31.557Z,23.15
2023-05-12T11:34:31.618Z,23.40
2023-05-12T11:35:31.675Z,23.51
2023-05-12T11:36:31.731Z,23.64
2023-05-12T11:37:31.768Z,23.71
2023-05-12T11:38:31.769Z,23.84
2023-05-12T11:39:31.774Z,23.89
2023-05-12T11:40:31.846Z,23.83
2023-05-12T11:41:31.841Z,23.61
2023-05-12T11:42:31.866Z,23.80
2023-05-12T11:43:31.906Z,23.76
2023-05-12T11:44:31.898Z,23.29
2023-05-12T11:45:31.978Z,23.20
2023-05-12T11:46:32.065Z,23.26
2023-05-12T11:47:32.031Z,23.25
2023-05-12T11:48:32.042Z,23.06
2023-05-12T11:49:32.102Z,22.87
2023-05-12T11:50:32.161Z,22.81
2023-05-12T11:51:32.174Z,22.93
2023-05-12T11:52:32.216Z,22.80
2023-05-12T11:53:32.246Z,22.78
2023-05-12T11:54:32.273Z,22.89
2023-05-12T11:55:32.294Z,23.14
2023-05-12T11:56:32.283Z,23.23
2023-05-12T11:57:32.556Z,23.24
2023-05-12T11:58:33.078Z,23.20
2023-05-12T11:59:32.420Z,23.06
2023-05-12T12:00:32.469Z,22.72
2023-05-12T12:01:32.479Z,22.67
2023-05-12T12:02:32.662Z,22.75
2023-05-12T12:03:32.563Z,22.80
2023-05-12T12:04:33.598Z,22.96
2023-05-12T12:05:32.605Z,22.90
2023-05-12T12:06:32.632Z,22.56
2023-05-12T12:07:32.698Z,22.67
2023-05-12T12:08:32.736Z,22.61
2023-05-12T12:09:32.738Z,22.59
2023-05-12T12:10:32.821Z,22.34
2023-05-12T12:11:32.923Z,21.60
2023-05-12T12:12:32.870Z,21.57
2023-05-12T12:13:32.893Z,21.98
2023-05-12T12:14:32.839Z,22.21
2023-05-12T12:15:32.898Z,22.45
2023-05-12T12:16:33.004Z,22.67
2023-05-12T12:17:32.937Z,22.92
2023-05-12T12:18:33.059Z,23.25
2023-05-12T12:19:33.000Z,23.37
2023-05-12T12:20:33.061Z,23.28
2023-05-12T12:21:33.074Z,23.21
2023-05-12T12:22:33.105Z,23.15
2023-05-12T12:23:40.641Z,22.98
2023-05-12T12:24:34.143Z,23.16
2023-05-12T12:25:33.126Z,23.18
2023-05-12T12:26:33.159Z,23.49
2023-05-12T12:27:33.103Z,23.67
2023-05-12T12:28:33.106Z,23.79
2023-05-12T12:29:33.119Z,23.92
2023-05-12T12:30:33.077Z,24.14
2023-05-12T12:31:33.139Z,23.80
2023-05-12T12:32:33.087Z,23.84
2023-05-12T12:33:33.067Z,24.06
2023-05-12T12:34:33.055Z,24.10
2023-05-12T12:35:33.074Z,24.14
2023-05-12T12:36:33.096Z,24.31
2023-05-12T12:37:33.084Z,24.41
2023-05-12T12:38:33.080Z,24.46
2023-05-12T12:39:33.140Z,24.38
2023-05-12T12:40:33.142Z,24.63
2023-05-12T12:41:33.203Z,24.86
2023-05-12T12:42:33.191Z,25.03
2023-05-12T12:43:33.210Z,25.12
2023-05-12T12:44:33.219Z,25.28
2023-05-12T12:45:33.240Z,25.15
2023-05-12T12:46:33.330Z,24.76
2023-05-12T12:47:33.360Z,24.92
2023-05-12T12:48:33.363Z,24.64
2023-05-12T12:49:33.414Z,24.68
2023-05-12T12:50:33.456Z,24.60
2023-05-12T12:51:45.189Z,24.71
2023-05-12T12:52:34.465Z,24.95
2023-05-12T12:53:33.408Z,24.87
2023-05-12T12:54:33.404Z,24.47
2023-05-12T12:55:33.441Z,24.52
2023-05-12T12:56:33.387Z,24.48
2023-05-12T12:57:33.414Z,24.53
2023-05-12T12:58:33.392Z,24.10
2023-05-12T12:59:33.402Z,24.16